Aeroporto :
LOGIN :

Iscrizione | Disclaimer

   EN    FR    IT 

 










Sommario :    VFR   VFR Marginale   IFR   IFR Intensivo   IFR Molto Intensivo
Visibilità : 
Base nubi : 
>= 8 km
>= 3000ft
5 / 8 km
1000 / 3000 ft
1500m / 5 km
500 / 1000 ft
800 / 1500m
200 / 500 ft
< 800m
< 200 ft
Simboli :   Temporali  Nebbia  Neve Forte  Precipitazioni Forti  Vento > 20 kt
SIGMETs :   Varie  Temporali  Ghiacco  Turbolenza  Onda orograficha  Ceneri Vulcaniche







- Altitudine del aeroporto : 32 ft
- Codice IATA : LKZ


EGUL - RAF Lakenheath

ULTIMO METAR :
  • 171156Z AUTO 22012G17KT 9999 FEW040 20/11 A3002 RMK AO2 SLP169 70001 T01980113 10198 20143 58006 $

METARs OBSOLETI :
  • 171056Z AUTO 23016G21KT 9999 SCT039 19/10 A3002 RMK AO2 SLP169 T01900100 $
  • 170956Z AUTO 22015G22KT 9999 SCT036 19/10 A3003 RMK AO2 SLP172 T01900100 $

TAF TAF EGUL
Valido dal 17 a 12 ore il 18 a 18 ore UTC


171204Z 1712/1818 21012G20KT 9999 SCT030 QNH3000INS
BECMG 1717/1718 22009KT 9999 FEW040 QNH3000INS
BECMG 1800/1801 VRB06KT 9999 SCT025 QNH2995INS
BECMG 1812/1813 VRB06KT 9000 -SHRA SCT040 BKN050 QNH2991INS
BECMG 1816/1817 VRB06KT 9000 -SHRA BKN010 QNH2990INS TX22/1714Z TN09/1804Z
Nessun NOTAM noto per questo aeroporto.



MetMap, La meteo Aeronautica in un colpo d'occhio ! - Copyright ORBIFLY Dicembre 2007 - Disclaimer

ORBIFLY MET'MAP TEAM :

Programmazione e sviluppo : Alexandra Zaïnal
Concezione e sviluppo : Baudouin d'Aumeries
Co-Programmazione e sviluppo : Marc-Olivier Méhu
Supporto tecnico e logistico : Manuel Goepfert
Aiuto per la traduzione : Arnaldo La Scala

Contatto : metmap@orbifly.com




FONTI E CREDITI :

   NOAA